Air Quality Table

TIMESTAMP NO2 SO2 O3 PM10 PM2.5 TEMP HUM AIRPRES WS WD NO
2023-02-08 15:00 2.83 µg/m3 0.26 µg/m3 76.67 µg/m3 13.62 µg/m3 4.3 µg/m3 10.16 °C 96.16 % 1,014.15 mbar 5.85 m/s 260.72 Deg 0.01 µg/m3
2023-02-08 14:00 2.15 µg/m3 0.26 µg/m3 76.25 µg/m3 8.53 µg/m3 4.08 µg/m3 10.25 °C 89.97 % 1,014.72 mbar 7.1 m/s 237.22 Deg -0.07 µg/m3
2023-02-08 13:00 2.2 µg/m3 0.31 µg/m3 77.39 µg/m3 9.46 µg/m3 4.65 µg/m3 10.82 °C 80.5 % 1,015.49 mbar 7.36 m/s 189.13 Deg 0 µg/m3
2023-02-08 12:00 1.86 µg/m3 0.3 µg/m3 77.13 µg/m3 8.94 µg/m3 6.42 µg/m3 11.03 °C 79.6 % 1,016.21 mbar 8.71 m/s 194.85 Deg -0 µg/m3
2023-02-08 11:00 2.25 µg/m3 0.31 µg/m3 76.43 µg/m3 7.46 µg/m3 6.71 µg/m3 10.83 °C 78.48 % 1,017.10 mbar 7.96 m/s 171.07 Deg 0.02 µg/m3
2023-02-08 10:00 1.94 µg/m3 0.31 µg/m3 77.13 µg/m3 9.1 µg/m3 6.98 µg/m3 10.49 °C 80.01 % 1,017.50 mbar 8.22 m/s 140.3 Deg -0.07 µg/m3
2023-02-08 09:00 1.86 µg/m3 0.29 µg/m3 74.94 µg/m3 9.98 µg/m3 6.89 µg/m3 10.97 °C 73.77 % 1,017.31 mbar 8.32 m/s 123.15 Deg -0.12 µg/m3
2023-02-08 08:00 1.85 µg/m3 0.26 µg/m3 76.08 µg/m3 9.97 µg/m3 7.47 µg/m3 10.81 °C 74.19 % 1,017.35 mbar 8.08 m/s 128.25 Deg -0.13 µg/m3
2023-02-08 07:00 1.92 µg/m3 0.25 µg/m3 77.56 µg/m3 9.76 µg/m3 6.03 µg/m3 10.5 °C 75.01 % 1,017.44 mbar 8.03 m/s 127.65 Deg -0.15 µg/m3
2023-02-08 06:00 2.43 µg/m3 0.27 µg/m3 77.08 µg/m3 9.13 µg/m3 6.73 µg/m3 10.19 °C 78.83 % 1,017.25 mbar 6.98 m/s 198.28 Deg -0.14 µg/m3
2023-02-08 05:00 1.42 µg/m3 0.27 µg/m3 77.53 µg/m3 12.24 µg/m3 6.94 µg/m3 10.14 °C 78.71 % 1,017.72 mbar 6.42 m/s 139.28 Deg -0.15 µg/m3
2023-02-08 04:00 1.8 µg/m3 0.32 µg/m3 76.5 µg/m3 18.27 µg/m3 7.03 µg/m3 10 °C 77.25 % 1,018.73 mbar 6.13 m/s 145.57 Deg -0.16 µg/m3
2023-02-08 03:00 1.59 µg/m3 0.26 µg/m3 77.47 µg/m3 11.03 µg/m3 7.05 µg/m3 10.11 °C 73.06 % 1,019.26 mbar 5.16 m/s 123.52 Deg -0.17 µg/m3
2023-02-08 02:00 1.58 µg/m3 0.32 µg/m3 78.08 µg/m3 7.98 µg/m3 5.3 µg/m3 9.76 °C 73.6 % 1,019.75 mbar 5.13 m/s 147.23 Deg -0.16 µg/m3
2023-02-08 01:00 1.48 µg/m3 0.33 µg/m3 79.05 µg/m3 7.98 µg/m3 5.33 µg/m3 9.65 °C 71.74 % 1,020.01 mbar 5.09 m/s 185.48 Deg -0.16 µg/m3
2023-02-08 00:00 1.54 µg/m3 0.34 µg/m3 77.8 µg/m3 8.18 µg/m3 5.8 µg/m3 9.24 °C 78.27 % 1,020.44 mbar 4.76 m/s 171.03 Deg -0.15 µg/m3
2023-02-07 23:00 1.69 µg/m3 0.32 µg/m3 77.4 µg/m3 11.3 µg/m3 6.58 µg/m3 9.35 °C 77.7 % 1,020.62 mbar 4.34 m/s 185.57 Deg -0.16 µg/m3
2023-02-07 22:00 1.99 µg/m3 0.33 µg/m3 77.28 µg/m3 17.9 µg/m3 6.39 µg/m3 9.57 °C 72.23 % 1,020.61 mbar 4.74 m/s 164.73 Deg -0.16 µg/m3
2023-02-07 21:00 2.26 µg/m3 0.38 µg/m3 76.51 µg/m3 14.44 µg/m3 5.58 µg/m3 9.4 °C 73.06 % 1,020.73 mbar 4.45 m/s 194.17 Deg -0.13 µg/m3
2023-02-07 20:00 2.36 µg/m3 0.33 µg/m3 76.2 µg/m3 12.3 µg/m3 5.45 µg/m3 9.76 °C 68.36 % 1,020.67 mbar 4.24 m/s 207.15 Deg -0.13 µg/m3
2023-02-07 19:00 2.1 µg/m3 0.36 µg/m3 75.91 µg/m3 7.57 µg/m3 7.44 µg/m3 9.85 °C 68.11 % 1,020.28 mbar 4.5 m/s 235.8 Deg -0.13 µg/m3
2023-02-07 18:00 2.49 µg/m3 0.35 µg/m3 75.04 µg/m3 6.82 µg/m3 7.89 µg/m3 9.71 °C 70.15 % 1,019.98 mbar 4.58 m/s 203.65 Deg -0.13 µg/m3

It is to be noted that the data is provisional and subject to quality assurance procedures. For validated data kindly refer your request to contact.air@era.org.mt